createdAt,value
2024-04-25T00:02:28.108Z,8.85
2024-04-25T00:05:18.757Z,8.90
2024-04-25T00:08:09.878Z,8.98
2024-04-25T00:10:59.600Z,10.07
2024-04-25T00:13:49.611Z,10.55
2024-04-25T00:16:43.366Z,10.43
2024-04-25T00:19:37.391Z,11.20
2024-04-25T00:22:27.191Z,10.45
2024-04-25T00:25:17.641Z,11.23
2024-04-25T00:28:08.483Z,11.20
2024-04-25T00:30:58.494Z,11.25
2024-04-25T00:33:49.133Z,12.13
2024-04-25T00:36:41.827Z,12.45
2024-04-25T00:39:32.337Z,13.02
2024-04-25T00:42:26.655Z,11.73
2024-04-25T00:48:09.760Z,12.88
2024-04-25T00:51:00.679Z,12.77
2024-04-25T00:53:53.056Z,12.43
2024-04-25T00:56:45.080Z,13.32
2024-04-25T00:59:36.163Z,14.25
2024-04-25T01:02:28.528Z,12.88
2024-04-25T01:05:19.019Z,12.50
2024-04-25T01:08:10.111Z,13.40
2024-04-25T01:11:03.034Z,12.70
2024-04-25T01:13:53.564Z,12.75
2024-04-25T01:16:44.080Z,13.45
2024-04-25T01:19:35.333Z,12.73
2024-04-25T01:22:27.428Z,11.43
2024-04-25T01:25:22.285Z,12.13
2024-04-25T01:28:12.900Z,10.40
2024-04-25T01:31:03.877Z,10.50
2024-04-25T01:33:56.072Z,13.45
2024-04-25T01:36:46.312Z,11.98
2024-04-25T01:39:36.615Z,12.90
2024-04-25T01:42:29.430Z,11.75
2024-04-25T01:45:19.690Z,12.75
2024-04-25T01:48:11.238Z,11.75
2024-04-25T01:51:01.673Z,11.25
2024-04-25T01:53:52.271Z,11.05
2024-04-25T01:56:42.603Z,10.68
2024-04-25T01:59:35.519Z,10.95
2024-04-25T02:02:25.443Z,10.93
2024-04-25T02:05:15.526Z,10.93
2024-04-25T02:08:05.721Z,11.27
2024-04-25T02:10:56.991Z,11.90
2024-04-25T02:13:57.071Z,11.43
2024-04-25T02:16:58.177Z,12.02
2024-04-25T02:19:53.571Z,12.32
2024-04-25T02:22:58.184Z,13.48
2024-04-25T02:25:48.732Z,13.52
2024-04-25T02:28:39.886Z,14.15
2024-04-25T02:31:33.231Z,14.45
2024-04-25T02:34:28.420Z,15.32
2024-04-25T02:37:18.760Z,13.93
2024-04-25T02:40:10.190Z,14.85
2024-04-25T02:43:01.182Z,15.38
2024-04-25T02:45:51.569Z,15.35
2024-04-25T02:48:40.813Z,14.15
2024-04-25T02:51:33.348Z,14.90
2024-04-25T02:54:20.643Z,15.02
2024-04-25T02:57:11.260Z,14.48
2024-04-25T02:59:58.543Z,15.30
2024-04-25T03:02:48.735Z,15.90
2024-04-25T03:05:41.328Z,14.43
2024-04-25T03:08:34.333Z,14.70
2024-04-25T03:11:23.026Z,14.93
2024-04-25T03:14:12.993Z,14.35
2024-04-25T03:17:00.913Z,14.68
2024-04-25T03:19:50.327Z,16.20
2024-04-25T03:22:37.650Z,15.65
2024-04-25T03:25:31.177Z,17.27
2024-04-25T03:28:19.803Z,15.57
2024-04-25T03:31:10.514Z,16.00
2024-04-25T03:34:00.829Z,17.30
2024-04-25T03:36:52.266Z,17.08
2024-04-25T03:39:42.834Z,16.80
2024-04-25T03:42:36.400Z,15.27
2024-04-25T03:45:29.158Z,15.80
2024-04-25T03:48:20.631Z,15.27
2024-04-25T03:51:12.025Z,15.55
2024-04-25T03:54:02.634Z,15.13
2024-04-25T03:56:53.303Z,14.13
2024-04-25T03:59:53.261Z,14.55
2024-04-25T04:02:45.434Z,14.65
2024-04-25T04:05:37.524Z,14.13
2024-04-25T04:08:29.752Z,13.38
2024-04-25T04:11:23.591Z,14.02
2024-04-25T04:14:15.130Z,13.82
2024-04-25T04:17:08.023Z,14.07
2024-04-25T04:19:57.873Z,13.90
2024-04-25T04:22:47.988Z,14.23
2024-04-25T04:25:38.573Z,12.60
2024-04-25T04:28:28.877Z,13.18
2024-04-25T04:31:22.462Z,13.70
2024-04-25T04:34:15.669Z,13.43
2024-04-25T04:37:07.331Z,12.27
2024-04-25T04:40:00.868Z,13.27
2024-04-25T04:42:51.303Z,12.65
2024-04-25T04:45:42.756Z,13.18
2024-04-25T04:48:35.348Z,12.23
2024-04-25T04:51:32.355Z,12.57
2024-04-25T04:54:22.865Z,34.78
2024-04-25T04:57:14.880Z,15.10
2024-04-25T05:00:07.667Z,13.20
2024-04-25T05:02:58.495Z,28.60
2024-04-25T05:05:49.167Z,13.18
2024-04-25T05:08:43.232Z,13.57
2024-04-25T05:14:24.131Z,13.07
2024-04-25T05:17:15.995Z,14.85
2024-04-25T05:20:07.223Z,12.65
2024-04-25T05:22:57.910Z,12.52
2024-04-25T05:25:51.511Z,15.15
2024-04-25T05:28:42.595Z,11.27
2024-04-25T05:31:34.206Z,12.73
2024-04-25T05:34:25.717Z,12.00
2024-04-25T05:37:16.634Z,16.77
2024-04-25T05:40:10.500Z,39.53
2024-04-25T05:43:03.221Z,11.98
2024-04-25T05:45:54.705Z,23.75
2024-04-25T05:48:46.999Z,16.33
2024-04-25T05:51:37.485Z,12.13
2024-04-25T05:54:31.679Z,23.98
2024-04-25T05:57:22.862Z,12.45
2024-04-25T06:00:16.164Z,11.20
2024-04-25T06:03:06.215Z,10.43
2024-04-25T06:05:58.168Z,12.93
2024-04-25T06:08:57.266Z,15.65
2024-04-25T06:11:53.767Z,11.15
2024-04-25T06:14:44.981Z,9.93
2024-04-25T06:17:38.672Z,12.68
2024-04-25T06:20:31.402Z,12.23
2024-04-25T06:23:23.644Z,9.23
2024-04-25T06:26:25.143Z,8.88
2024-04-25T06:29:17.753Z,8.65
2024-04-25T06:32:08.973Z,8.52
2024-04-25T06:35:16.740Z,8.73
2024-04-25T06:38:09.198Z,8.63
2024-04-25T06:41:00.727Z,7.93
2024-04-25T06:43:58.243Z,7.90
2024-04-25T06:46:52.661Z,7.63
2024-04-25T06:49:43.025Z,7.43
2024-04-25T06:52:36.407Z,7.97
2024-04-25T06:55:36.373Z,7.30
2024-04-25T06:58:27.511Z,15.48
2024-04-25T07:01:19.340Z,72.07
2024-04-25T07:04:10.315Z,11.23
2024-04-25T07:07:03.088Z,5.90
2024-04-25T07:09:59.650Z,7.22
2024-04-25T07:12:55.983Z,6.72
2024-04-25T07:15:49.908Z,5.15
2024-04-25T07:18:42.990Z,4.40
2024-04-25T07:21:35.157Z,8.25
2024-04-25T07:24:25.905Z,3.70
2024-04-25T07:27:20.472Z,3.30
2024-04-25T07:30:13.158Z,4.57
2024-04-25T07:33:04.874Z,3.60
2024-04-25T07:35:56.326Z,3.78
2024-04-25T07:38:46.742Z,4.20
2024-04-25T07:41:37.442Z,3.78
2024-04-25T07:44:34.576Z,3.55
2024-04-25T07:47:26.177Z,3.67
2024-04-25T07:50:17.661Z,3.33
2024-04-25T07:53:11.391Z,3.47
2024-04-25T07:58:58.215Z,3.25
2024-04-25T08:01:54.310Z,3.67
2024-04-25T08:04:46.779Z,3.10
2024-04-25T08:07:47.814Z,3.40
2024-04-25T08:10:39.746Z,2.90
2024-04-25T08:13:30.964Z,2.70
2024-04-25T08:16:22.272Z,2.90
2024-04-25T08:19:16.531Z,3.03
2024-04-25T08:22:16.294Z,2.90
2024-04-25T08:25:11.861Z,2.60
2024-04-25T08:28:07.004Z,3.13
2024-04-25T08:31:01.925Z,2.67
2024-04-25T08:33:53.817Z,2.40
2024-04-25T08:36:48.452Z,2.50
2024-04-25T08:39:39.318Z,2.80
2024-04-25T08:42:35.911Z,2.67
2024-04-25T08:45:27.439Z,1.20
2024-04-25T08:48:23.130Z,1.80
2024-04-25T08:51:18.737Z,1.80
2024-04-25T08:54:13.869Z,1.70
2024-04-25T08:57:06.384Z,2.10
2024-04-25T08:59:58.605Z,1.80
2024-04-25T09:02:54.218Z,1.88
2024-04-25T09:05:45.379Z,1.95
2024-04-25T09:08:38.986Z,2.20
2024-04-25T09:11:35.457Z,2.10
2024-04-25T09:14:26.677Z,1.73
2024-04-25T09:17:18.763Z,1.80
2024-04-25T09:20:33.073Z,4.47
2024-04-25T09:23:25.615Z,1.95
2024-04-25T09:26:18.632Z,2.20
2024-04-25T09:29:13.455Z,2.10
2024-04-25T09:32:06.517Z,2.03
2024-04-25T09:35:04.030Z,1.75
2024-04-25T09:38:01.298Z,3.22
2024-04-25T09:40:53.639Z,1.63
2024-04-25T09:43:46.118Z,2.40
2024-04-25T09:46:44.455Z,2.00
2024-04-25T09:49:40.032Z,1.80
2024-04-25T09:52:35.543Z,3.45
2024-04-25T09:55:35.126Z,1.83
2024-04-25T09:58:36.582Z,2.30
2024-04-25T10:01:30.588Z,2.10
2024-04-25T10:04:26.309Z,2.83
2024-04-25T10:07:20.686Z,2.20
2024-04-25T10:10:12.738Z,2.05
2024-04-25T10:13:06.913Z,2.22
2024-04-25T10:16:01.136Z,1.90
2024-04-25T10:18:59.443Z,2.45
2024-04-25T10:21:53.788Z,2.08
2024-04-25T10:24:50.481Z,2.15
2024-04-25T10:27:41.384Z,3.03
2024-04-25T10:30:34.787Z,2.10
2024-04-25T10:33:25.150Z,2.20
2024-04-25T10:36:19.631Z,2.55
2024-04-25T10:39:18.149Z,2.30
2024-04-25T10:42:18.256Z,2.42
2024-04-25T10:45:09.657Z,2.28
2024-04-25T10:48:01.323Z,3.00
2024-04-25T10:50:53.594Z,2.50
2024-04-25T10:53:44.599Z,2.50
2024-04-25T10:56:42.284Z,3.72
2024-04-25T10:59:33.463Z,2.97
2024-04-25T11:02:24.614Z,2.90
2024-04-25T11:05:15.451Z,3.10
2024-04-25T11:08:07.346Z,2.60
2024-04-25T11:11:01.118Z,2.80
2024-04-25T11:13:56.263Z,2.97
2024-04-25T11:16:47.227Z,3.13
2024-04-25T11:19:43.493Z,2.70
2024-04-25T11:22:45.542Z,3.15
2024-04-25T11:25:49.765Z,3.00
2024-04-25T11:28:42.650Z,2.88
2024-04-25T11:31:38.282Z,2.85
2024-04-25T11:34:29.773Z,3.28
2024-04-25T11:37:20.801Z,3.03
2024-04-25T11:40:12.569Z,3.63
2024-04-25T11:43:04.060Z,2.92
2024-04-25T11:46:01.393Z,2.90
2024-04-25T11:49:06.650Z,2.97
2024-04-25T11:51:59.546Z,3.22
2024-04-25T11:55:13.637Z,2.55
2024-04-25T12:00:57.987Z,2.88
2024-04-25T12:03:55.816Z,3.33
2024-04-25T12:06:54.331Z,3.00
2024-04-25T12:09:47.729Z,3.17
2024-04-25T12:15:36.274Z,2.75
2024-04-25T12:18:32.052Z,3.22
2024-04-25T12:21:28.551Z,3.33
2024-04-25T12:24:19.780Z,3.50
2024-04-25T12:27:10.434Z,2.95
2024-04-25T12:30:01.869Z,3.80
2024-04-25T12:33:01.080Z,3.90
2024-04-25T12:35:51.439Z,4.68
2024-04-25T12:38:53.466Z,3.63
2024-04-25T12:41:46.521Z,4.28
2024-04-25T12:44:39.406Z,4.43
2024-04-25T12:47:32.176Z,3.50
2024-04-25T12:50:23.586Z,4.00
2024-04-25T12:53:17.947Z,18.38
2024-04-25T12:56:15.612Z,3.80
2024-04-25T12:59:06.692Z,4.05
2024-04-25T13:01:58.501Z,3.80
2024-04-25T13:04:54.181Z,4.10
2024-04-25T13:07:47.772Z,5.22
2024-04-25T13:10:45.140Z,3.58
2024-04-25T13:13:39.183Z,4.55
2024-04-25T13:16:33.474Z,4.10
2024-04-25T13:19:24.221Z,4.70
2024-04-25T13:22:15.005Z,4.15
2024-04-25T13:25:06.070Z,4.05
2024-04-25T13:27:57.375Z,5.07
2024-04-25T13:30:53.318Z,4.80
2024-04-25T13:33:44.754Z,4.15
2024-04-25T13:36:39.414Z,4.35
2024-04-25T13:39:31.208Z,3.83
2024-04-25T13:42:24.061Z,4.43
2024-04-25T13:45:15.470Z,4.65
2024-04-25T13:48:10.444Z,4.50
2024-04-25T13:51:01.966Z,5.63
2024-04-25T13:53:53.671Z,5.45
2024-04-25T13:56:44.747Z,5.15
2024-04-25T13:59:36.054Z,4.88
2024-04-25T14:02:27.304Z,4.10
2024-04-25T14:05:25.022Z,4.50
2024-04-25T14:08:15.038Z,4.38
2024-04-25T14:11:05.568Z,3.58
2024-04-25T14:14:04.171Z,3.58
2024-04-25T14:16:54.387Z,3.10
2024-04-25T14:19:50.474Z,2.72
2024-04-25T14:22:47.562Z,2.50
2024-04-25T14:25:55.644Z,3.50
2024-04-25T14:28:54.149Z,2.55
2024-04-25T14:31:44.913Z,2.50
2024-04-25T14:34:36.706Z,3.28
2024-04-25T14:37:27.513Z,2.70
2024-04-25T14:40:26.833Z,3.13
2024-04-25T14:43:17.889Z,2.92
2024-04-25T14:46:08.387Z,2.42
2024-04-25T14:48:59.139Z,2.38
2024-04-25T14:51:50.649Z,2.30
2024-04-25T14:54:42.324Z,2.08
2024-04-25T14:57:35.242Z,2.20
2024-04-25T15:00:26.718Z,2.08
2024-04-25T15:03:20.072Z,1.90
2024-04-25T15:06:11.608Z,2.15
2024-04-25T15:09:03.171Z,2.33
2024-04-25T15:12:07.081Z,3.80
2024-04-25T15:15:11.537Z,2.50
2024-04-25T15:18:06.190Z,2.75
2024-04-25T15:20:57.005Z,2.72
2024-04-25T15:23:47.477Z,3.25
2024-04-25T15:26:43.332Z,3.65
2024-04-25T15:29:37.119Z,3.17
2024-04-25T15:32:35.565Z,3.42
2024-04-25T15:35:26.344Z,3.75
2024-04-25T15:38:21.639Z,4.03
2024-04-25T15:41:13.113Z,3.88
2024-04-25T15:44:04.656Z,4.10
2024-04-25T15:46:56.138Z,3.90
2024-04-25T15:49:50.264Z,4.35
2024-04-25T15:52:51.319Z,4.25
2024-04-25T15:55:42.784Z,4.60
2024-04-25T15:58:37.164Z,4.60
2024-04-25T16:01:29.653Z,5.18
2024-04-25T16:04:23.408Z,5.63
2024-04-25T16:07:23.466Z,5.45
2024-04-25T16:10:22.512Z,6.13
2024-04-25T16:13:17.965Z,5.90
2024-04-25T16:16:11.668Z,5.40
2024-04-25T16:19:07.369Z,6.28
2024-04-25T16:22:06.229Z,6.47
2024-04-25T16:25:02.549Z,6.32
2024-04-25T16:27:56.682Z,6.22
2024-04-25T16:30:47.248Z,5.57
2024-04-25T16:33:38.945Z,5.35
2024-04-25T16:36:36.685Z,5.97
2024-04-25T16:39:39.246Z,5.25
2024-04-25T16:42:45.031Z,4.88
2024-04-25T16:45:38.139Z,4.60
2024-04-25T16:48:30.152Z,5.27
2024-04-25T16:51:20.557Z,5.93
2024-04-25T16:54:13.725Z,5.70
2024-04-25T16:57:05.809Z,5.85
2024-04-25T17:00:03.363Z,6.28
2024-04-25T17:02:54.961Z,5.88
2024-04-25T17:05:47.051Z,6.50
2024-04-25T17:08:37.721Z,12.40
2024-04-25T17:11:30.651Z,34.75
2024-04-25T17:14:22.106Z,6.03
2024-04-25T17:17:34.153Z,7.88
2024-04-25T17:20:30.665Z,5.72
2024-04-25T17:23:22.605Z,4.90
2024-04-25T17:26:14.983Z,4.57
2024-04-25T17:29:10.093Z,4.88
2024-04-25T17:32:03.249Z,4.43
2024-04-25T17:35:04.469Z,10.88
2024-04-25T17:38:08.141Z,5.75
2024-04-25T17:41:23.678Z,6.03
2024-04-25T17:44:18.427Z,5.20
2024-04-25T17:47:11.976Z,4.80
2024-04-25T17:50:11.980Z,5.45
2024-04-25T17:53:15.266Z,4.85
2024-04-25T17:56:07.146Z,5.30
2024-04-25T17:59:01.944Z,5.70
2024-04-25T18:01:57.861Z,5.85
2024-04-25T18:04:50.563Z,6.10
2024-04-25T18:07:44.790Z,6.28
2024-04-25T18:10:38.514Z,5.80
2024-04-25T18:13:35.222Z,6.47
2024-04-25T18:16:46.947Z,5.55
2024-04-25T18:19:44.912Z,5.63
2024-04-25T18:22:39.358Z,5.57
2024-04-25T18:25:35.821Z,5.70
2024-04-25T18:28:28.012Z,6.32
2024-04-25T18:31:25.211Z,6.97
2024-04-25T18:34:17.848Z,6.82
2024-04-25T18:37:09.687Z,7.25
2024-04-25T18:40:12.851Z,7.50
2024-04-25T18:43:10.115Z,6.63
2024-04-25T18:46:01.512Z,7.05
2024-04-25T18:48:53.245Z,7.15
2024-04-25T18:51:45.183Z,6.93
2024-04-25T18:54:38.367Z,7.00
2024-04-25T18:57:29.495Z,7.20
2024-04-25T19:00:25.891Z,6.43
2024-04-25T19:03:20.761Z,7.25
2024-04-25T19:06:17.796Z,8.38
2024-04-25T19:09:12.891Z,8.10
2024-04-25T19:12:07.393Z,8.60
2024-04-25T19:15:02.290Z,8.15
2024-04-25T19:18:09.714Z,8.60
2024-04-25T19:21:08.727Z,8.68
2024-04-25T19:24:01.301Z,10.10
2024-04-25T19:27:00.480Z,9.73
2024-04-25T19:29:58.829Z,10.32
2024-04-25T19:32:50.609Z,12.45
2024-04-25T19:35:45.906Z,11.65
2024-04-25T19:38:38.074Z,11.63
2024-04-25T19:41:30.696Z,11.27
2024-04-25T19:44:33.629Z,13.00
2024-04-25T19:47:32.516Z,12.57
2024-04-25T19:54:00.326Z,12.65
2024-04-25T19:56:58.567Z,14.35
2024-04-25T19:59:54.217Z,14.50
2024-04-25T20:03:02.947Z,14.25
2024-04-25T20:06:02.684Z,14.15
2024-04-25T20:08:55.717Z,14.98
2024-04-25T20:11:51.139Z,13.65
2024-04-25T20:14:46.667Z,14.55
2024-04-25T20:18:00.830Z,13.20
2024-04-25T20:21:08.758Z,13.85
2024-04-25T20:24:03.860Z,15.48
2024-04-25T20:26:58.895Z,13.85
2024-04-25T20:29:57.533Z,14.40
2024-04-25T20:32:51.734Z,13.95
2024-04-25T20:38:47.370Z,13.30
2024-04-25T20:41:38.265Z,13.80
2024-04-25T20:44:31.466Z,13.50
2024-04-25T20:47:22.112Z,15.80
2024-04-25T20:50:12.768Z,14.40
2024-04-25T20:53:03.296Z,16.17
2024-04-25T20:55:54.445Z,16.83
2024-04-25T20:58:45.670Z,14.75
2024-04-25T21:01:43.290Z,13.63
2024-04-25T21:04:34.814Z,13.65
2024-04-25T21:07:25.049Z,13.30
2024-04-25T21:10:16.811Z,13.65
2024-04-25T21:13:08.244Z,14.80
2024-04-25T21:15:58.443Z,13.70
2024-04-25T21:18:51.146Z,13.15
2024-04-25T21:21:42.182Z,15.73
2024-04-25T21:24:33.116Z,13.73
2024-04-25T21:27:23.181Z,13.65
2024-04-25T21:30:13.527Z,13.55
2024-04-25T21:33:03.990Z,13.05
2024-04-25T21:35:56.759Z,13.15
2024-04-25T21:38:46.875Z,13.38
2024-04-25T21:41:41.672Z,13.48
2024-04-25T21:44:31.496Z,12.80
2024-04-25T21:47:21.599Z,12.68
2024-04-25T21:50:11.870Z,12.27
2024-04-25T21:53:07.754Z,12.55
2024-04-25T21:56:00.930Z,12.10
2024-04-25T21:58:51.874Z,13.18
2024-04-25T22:01:54.358Z,12.30
2024-04-25T22:04:44.884Z,11.98
2024-04-25T22:07:35.947Z,11.70
2024-04-25T22:10:29.083Z,11.27
2024-04-25T22:13:18.975Z,11.90
2024-04-25T22:16:11.139Z,11.63
2024-04-25T22:19:02.120Z,11.18
2024-04-25T22:21:55.467Z,11.90
2024-04-25T22:24:51.875Z,11.20
2024-04-25T22:27:45.051Z,10.75
2024-04-25T22:30:35.149Z,11.40
2024-04-25T22:33:25.018Z,10.40
2024-04-25T22:36:19.468Z,11.38
2024-04-25T22:39:11.372Z,10.60
2024-04-25T22:42:01.699Z,10.40
2024-04-25T22:44:58.666Z,10.15
2024-04-25T22:47:52.600Z,11.25
2024-04-25T22:50:43.303Z,11.27
2024-04-25T22:53:35.612Z,10.88
2024-04-25T22:56:31.709Z,11.18
2024-04-25T22:59:21.773Z,11.35
2024-04-25T23:02:14.816Z,10.90
2024-04-25T23:05:04.547Z,10.85
2024-04-25T23:07:54.683Z,10.70
2024-04-25T23:10:45.391Z,10.90
2024-04-25T23:13:38.186Z,10.02
2024-04-25T23:16:32.295Z,10.05
2024-04-25T23:19:25.848Z,9.10
2024-04-25T23:22:15.858Z,9.57
2024-04-25T23:25:05.580Z,10.00
2024-04-25T23:27:55.852Z,8.75
2024-04-25T23:30:48.571Z,9.55
2024-04-25T23:33:41.205Z,9.80
2024-04-25T23:36:33.976Z,9.40
2024-04-25T23:39:24.065Z,9.02
2024-04-25T23:42:13.670Z,8.82
2024-04-25T23:45:03.257Z,9.63
2024-04-25T23:47:52.942Z,9.35
2024-04-25T23:50:44.688Z,9.02
2024-04-25T23:53:37.156Z,8.73
2024-04-25T23:56:27.134Z,8.88
2024-04-25T23:59:18.037Z,8.50
